sensor_id;sensor_type;location;lat;lon;timestamp;P1;durP1;ratioP1;P2;durP2;ratioP2
22967;SDS011;11650;48.106;-1.696;2022-08-19T00:01:35;10.50;;;2.73;;
22967;SDS011;11650;48.106;-1.696;2022-08-19T00:04:04;6.73;;;2.50;;
22967;SDS011;11650;48.106;-1.696;2022-08-19T00:06:31;3.97;;;2.40;;
22967;SDS011;11650;48.106;-1.696;2022-08-19T00:08:58;3.53;;;2.30;;
22967;SDS011;11650;48.106;-1.696;2022-08-19T00:11:25;3.83;;;2.40;;
22967;SDS011;11650;48.106;-1.696;2022-08-19T00:13:52;8.07;;;2.40;;
22967;SDS011;11650;48.106;-1.696;2022-08-19T00:16:19;3.37;;;1.87;;
22967;SDS011;11650;48.106;-1.696;2022-08-19T00:18:45;7.50;;;2.60;;
22967;SDS011;11650;48.106;-1.696;2022-08-19T00:21:11;2.87;;;2.10;;
22967;SDS011;11650;48.106;-1.696;2022-08-19T00:23:37;4.70;;;2.47;;
22967;SDS011;11650;48.106;-1.696;2022-08-19T00:26:03;3.23;;;2.10;;
22967;SDS011;11650;48.106;-1.696;2022-08-19T00:28:29;3.47;;;1.90;;
22967;SDS011;11650;48.106;-1.696;2022-08-19T00:30:55;4.67;;;2.00;;
22967;SDS011;11650;48.106;-1.696;2022-08-19T00:33:21;5.17;;;2.20;;
22967;SDS011;11650;48.106;-1.696;2022-08-19T00:35:47;5.10;;;2.30;;
22967;SDS011;11650;48.106;-1.696;2022-08-19T00:38:13;6.30;;;1.97;;
22967;SDS011;11650;48.106;-1.696;2022-08-19T00:40:39;8.97;;;2.40;;
22967;SDS011;11650;48.106;-1.696;2022-08-19T00:43:10;4.17;;;2.00;;
22967;SDS011;11650;48.106;-1.696;2022-08-19T00:45:38;3.43;;;2.20;;
22967;SDS011;11650;48.106;-1.696;2022-08-19T00:48:06;3.43;;;2.17;;
22967;SDS011;11650;48.106;-1.696;2022-08-19T00:50:32;4.60;;;2.17;;
22967;SDS011;11650;48.106;-1.696;2022-08-19T00:52:58;5.80;;;2.20;;
22967;SDS011;11650;48.106;-1.696;2022-08-19T00:55:29;3.53;;;2.00;;
22967;SDS011;11650;48.106;-1.696;2022-08-19T00:57:59;3.23;;;2.10;;
22967;SDS011;11650;48.106;-1.696;2022-08-19T01:00:29;3.43;;;2.40;;
22967;SDS011;11650;48.106;-1.696;2022-08-19T01:02:56;5.30;;;2.20;;
22967;SDS011;11650;48.106;-1.696;2022-08-19T01:05:23;4.53;;;2.00;;
22967;SDS011;11650;48.106;-1.696;2022-08-19T01:07:52;3.00;;;1.80;;
22967;SDS011;11650;48.106;-1.696;2022-08-19T01:10:20;3.77;;;2.53;;
22967;SDS011;11650;48.106;-1.696;2022-08-19T01:12:50;4.17;;;2.57;;
22967;SDS011;11650;48.106;-1.696;2022-08-19T01:15:18;6.00;;;2.50;;
22967;SDS011;11650;48.106;-1.696;2022-08-19T01:17:47;5.73;;;2.20;;
22967;SDS011;11650;48.106;-1.696;2022-08-19T01:20:15;5.70;;;2.50;;
22967;SDS011;11650;48.106;-1.696;2022-08-19T01:22:46;5.07;;;2.40;;
22967;SDS011;11650;48.106;-1.696;2022-08-19T01:25:18;5.40;;;2.73;;
22967;SDS011;11650;48.106;-1.696;2022-08-19T01:27:47;5.30;;;2.77;;
22967;SDS011;11650;48.106;-1.696;2022-08-19T01:30:16;3.33;;;2.40;;
22967;SDS011;11650;48.106;-1.696;2022-08-19T01:32:44;6.17;;;2.73;;
22967;SDS011;11650;48.106;-1.696;2022-08-19T01:35:10;5.20;;;3.07;;
22967;SDS011;11650;48.106;-1.696;2022-08-19T01:40:10;7.90;;;2.90;;
22967;SDS011;11650;48.106;-1.696;2022-08-19T01:42:36;5.50;;;2.60;;
22967;SDS011;11650;48.106;-1.696;2022-08-19T01:45:02;8.27;;;3.00;;
22967;SDS011;11650;48.106;-1.696;2022-08-19T01:47:28;6.47;;;2.93;;
22967;SDS011;11650;48.106;-1.696;2022-08-19T01:49:54;5.83;;;2.87;;
22967;SDS011;11650;48.106;-1.696;2022-08-19T01:52:20;6.83;;;2.90;;
22967;SDS011;11650;48.106;-1.696;2022-08-19T01:54:46;7.97;;;3.53;;
22967;SDS011;11650;48.106;-1.696;2022-08-19T01:57:12;7.77;;;3.57;;
22967;SDS011;11650;48.106;-1.696;2022-08-19T01:59:39;9.00;;;3.03;;
22967;SDS011;11650;48.106;-1.696;2022-08-19T02:02:06;7.33;;;3.30;;
22967;SDS011;11650;48.106;-1.696;2022-08-19T02:04:34;9.20;;;3.57;;
22967;SDS011;11650;48.106;-1.696;2022-08-19T02:07:00;6.37;;;3.50;;
22967;SDS011;11650;48.106;-1.696;2022-08-19T02:09:26;6.37;;;3.37;;
22967;SDS011;11650;48.106;-1.696;2022-08-19T02:11:52;8.80;;;3.93;;
22967;SDS011;11650;48.106;-1.696;2022-08-19T02:14:18;7.20;;;3.60;;
22967;SDS011;11650;48.106;-1.696;2022-08-19T02:16:44;4.77;;;3.10;;
22967;SDS011;11650;48.106;-1.696;2022-08-19T02:19:09;5.60;;;3.53;;
22967;SDS011;11650;48.106;-1.696;2022-08-19T02:21:35;4.97;;;3.50;;
22967;SDS011;11650;48.106;-1.696;2022-08-19T02:24:01;8.17;;;3.43;;
22967;SDS011;11650;48.106;-1.696;2022-08-19T02:26:27;7.10;;;3.40;;
22967;SDS011;11650;48.106;-1.696;2022-08-19T02:28:53;7.33;;;3.63;;
22967;SDS011;11650;48.106;-1.696;2022-08-19T02:31:21;7.30;;;3.20;;
22967;SDS011;11650;48.106;-1.696;2022-08-19T02:33:48;4.43;;;3.17;;
22967;SDS011;11650;48.106;-1.696;2022-08-19T02:36:15;7.60;;;3.30;;
22967;SDS011;11650;48.106;-1.696;2022-08-19T02:38:42;8.97;;;3.40;;
22967;SDS011;11650;48.106;-1.696;2022-08-19T02:41:13;6.50;;;3.50;;
22967;SDS011;11650;48.106;-1.696;2022-08-19T02:43:40;5.97;;;3.17;;
22967;SDS011;11650;48.106;-1.696;2022-08-19T02:46:17;6.93;;;3.27;;
22967;SDS011;11650;48.106;-1.696;2022-08-19T02:48:48;3.50;;;3.20;;
22967;SDS011;11650;48.106;-1.696;2022-08-19T02:51:19;6.30;;;3.30;;
22967;SDS011;11650;48.106;-1.696;2022-08-19T02:53:47;4.23;;;2.73;;
22967;SDS011;11650;48.106;-1.696;2022-08-19T02:56:13;3.90;;;2.80;;
22967;SDS011;11650;48.106;-1.696;2022-08-19T02:58:39;5.73;;;3.07;;
22967;SDS011;11650;48.106;-1.696;2022-08-19T03:01:05;7.20;;;3.07;;
22967;SDS011;11650;48.106;-1.696;2022-08-19T03:03:31;5.33;;;3.23;;
22967;SDS011;11650;48.106;-1.696;2022-08-19T03:06:07;5.27;;;3.07;;
22967;SDS011;11650;48.106;-1.696;2022-08-19T03:08:38;3.47;;;2.77;;
22967;SDS011;11650;48.106;-1.696;2022-08-19T03:11:06;5.03;;;2.90;;
22967;SDS011;11650;48.106;-1.696;2022-08-19T03:13:37;4.63;;;2.83;;
22967;SDS011;11650;48.106;-1.696;2022-08-19T03:16:03;5.83;;;2.90;;
22967;SDS011;11650;48.106;-1.696;2022-08-19T03:18:30;4.70;;;3.17;;
22967;SDS011;11650;48.106;-1.696;2022-08-19T03:20:55;6.40;;;3.30;;
22967;SDS011;11650;48.106;-1.696;2022-08-19T03:23:22;5.13;;;3.10;;
22967;SDS011;11650;48.106;-1.696;2022-08-19T03:25:48;6.73;;;3.10;;
22967;SDS011;11650;48.106;-1.696;2022-08-19T03:28:16;5.37;;;3.00;;
22967;SDS011;11650;48.106;-1.696;2022-08-19T03:30:43;4.40;;;2.80;;
22967;SDS011;11650;48.106;-1.696;2022-08-19T03:33:21;4.33;;;2.60;;
22967;SDS011;11650;48.106;-1.696;2022-08-19T03:35:58;4.30;;;2.90;;
22967;SDS011;11650;48.106;-1.696;2022-08-19T03:38:25;4.30;;;2.80;;
22967;SDS011;11650;48.106;-1.696;2022-08-19T03:40:51;4.70;;;3.17;;
22967;SDS011;11650;48.106;-1.696;2022-08-19T03:43:16;4.43;;;2.90;;
22967;SDS011;11650;48.106;-1.696;2022-08-19T03:45:43;5.77;;;2.80;;
22967;SDS011;11650;48.106;-1.696;2022-08-19T03:48:08;3.37;;;2.77;;
22967;SDS011;11650;48.106;-1.696;2022-08-19T03:50:38;3.77;;;2.70;;
22967;SDS011;11650;48.106;-1.696;2022-08-19T03:53:04;3.43;;;2.80;;
22967;SDS011;11650;48.106;-1.696;2022-08-19T03:55:31;3.00;;;2.40;;
22967;SDS011;11650;48.106;-1.696;2022-08-19T03:57:56;4.23;;;2.53;;
22967;SDS011;11650;48.106;-1.696;2022-08-19T04:00:23;3.27;;;2.60;;
22967;SDS011;11650;48.106;-1.696;2022-08-19T04:02:48;5.23;;;2.87;;
22967;SDS011;11650;48.106;-1.696;2022-08-19T04:05:14;4.30;;;2.50;;
22967;SDS011;11650;48.106;-1.696;2022-08-19T04:07:40;3.90;;;2.77;;
22967;SDS011;11650;48.106;-1.696;2022-08-19T04:10:05;4.80;;;2.77;;
22967;SDS011;11650;48.106;-1.696;2022-08-19T04:12:31;5.47;;;3.20;;
22967;SDS011;11650;48.106;-1.696;2022-08-19T04:14:57;3.77;;;2.90;;
22967;SDS011;11650;48.106;-1.696;2022-08-19T04:17:23;4.07;;;2.57;;
22967;SDS011;11650;48.106;-1.696;2022-08-19T04:19:49;3.50;;;3.00;;
22967;SDS011;11650;48.106;-1.696;2022-08-19T04:22:15;4.83;;;2.97;;
22967;SDS011;11650;48.106;-1.696;2022-08-19T04:24:40;3.80;;;3.10;;
22967;SDS011;11650;48.106;-1.696;2022-08-19T04:27:06;5.37;;;3.10;;
22967;SDS011;11650;48.106;-1.696;2022-08-19T04:29:32;5.77;;;3.00;;
22967;SDS011;11650;48.106;-1.696;2022-08-19T04:31:58;5.93;;;3.20;;
22967;SDS011;11650;48.106;-1.696;2022-08-19T04:34:26;4.23;;;3.00;;
22967;SDS011;11650;48.106;-1.696;2022-08-19T04:36:53;3.73;;;2.93;;
22967;SDS011;11650;48.106;-1.696;2022-08-19T04:39:21;5.70;;;3.60;;
22967;SDS011;11650;48.106;-1.696;2022-08-19T04:42:12;9.87;;;3.20;;
22967;SDS011;11650;48.106;-1.696;2022-08-19T04:44:58;4.10;;;3.10;;
22967;SDS011;11650;48.106;-1.696;2022-08-19T04:47:24;4.20;;;3.10;;
22967;SDS011;11650;48.106;-1.696;2022-08-19T04:49:50;4.77;;;3.80;;
22967;SDS011;11650;48.106;-1.696;2022-08-19T04:52:15;8.43;;;3.93;;
22967;SDS011;11650;48.106;-1.696;2022-08-19T04:54:41;6.97;;;4.30;;
22967;SDS011;11650;48.106;-1.696;2022-08-19T04:57:07;4.30;;;3.60;;
22967;SDS011;11650;48.106;-1.696;2022-08-19T04:59:35;4.53;;;3.60;;
22967;SDS011;11650;48.106;-1.696;2022-08-19T05:02:01;4.40;;;3.67;;
22967;SDS011;11650;48.106;-1.696;2022-08-19T05:04:27;4.57;;;4.07;;
22967;SDS011;11650;48.106;-1.696;2022-08-19T05:06:56;7.10;;;3.67;;
22967;SDS011;11650;48.106;-1.696;2022-08-19T05:09:22;6.00;;;4.23;;
22967;SDS011;11650;48.106;-1.696;2022-08-19T05:11:48;4.93;;;3.97;;
22967;SDS011;11650;48.106;-1.696;2022-08-19T05:14:14;9.80;;;4.50;;
22967;SDS011;11650;48.106;-1.696;2022-08-19T05:16:40;5.00;;;4.03;;
22967;SDS011;11650;48.106;-1.696;2022-08-19T05:19:06;6.67;;;3.90;;
22967;SDS011;11650;48.106;-1.696;2022-08-19T05:21:50;5.97;;;4.27;;
22967;SDS011;11650;48.106;-1.696;2022-08-19T05:24:35;5.83;;;3.97;;
22967;SDS011;11650;48.106;-1.696;2022-08-19T05:27:02;5.33;;;3.90;;
22967;SDS011;11650;48.106;-1.696;2022-08-19T05:29:30;7.33;;;4.60;;
22967;SDS011;11650;48.106;-1.696;2022-08-19T05:31:56;5.80;;;4.03;;
22967;SDS011;11650;48.106;-1.696;2022-08-19T05:34:23;5.50;;;4.00;;
22967;SDS011;11650;48.106;-1.696;2022-08-19T05:36:53;5.57;;;4.17;;
22967;SDS011;11650;48.106;-1.696;2022-08-19T05:39:22;6.60;;;4.47;;
22967;SDS011;11650;48.106;-1.696;2022-08-19T05:41:51;8.30;;;4.23;;
22967;SDS011;11650;48.106;-1.696;2022-08-19T05:44:22;6.50;;;4.20;;
22967;SDS011;11650;48.106;-1.696;2022-08-19T05:46:50;7.10;;;4.13;;
22967;SDS011;11650;48.106;-1.696;2022-08-19T05:49:20;4.90;;;3.90;;
22967;SDS011;11650;48.106;-1.696;2022-08-19T05:51:47;6.00;;;4.00;;
22967;SDS011;11650;48.106;-1.696;2022-08-19T05:54:14;5.43;;;3.63;;
22967;SDS011;11650;48.106;-1.696;2022-08-19T05:56:40;6.70;;;4.10;;
22967;SDS011;11650;48.106;-1.696;2022-08-19T05:59:07;12.17;;;4.07;;
22967;SDS011;11650;48.106;-1.696;2022-08-19T06:01:36;8.27;;;4.37;;
22967;SDS011;11650;48.106;-1.696;2022-08-19T06:04:03;5.33;;;3.97;;
22967;SDS011;11650;48.106;-1.696;2022-08-19T06:06:29;4.70;;;3.53;;
22967;SDS011;11650;48.106;-1.696;2022-08-19T06:08:55;5.37;;;3.97;;
22967;SDS011;11650;48.106;-1.696;2022-08-19T06:11:24;5.53;;;3.90;;
22967;SDS011;11650;48.106;-1.696;2022-08-19T06:14:03;5.20;;;3.77;;
22967;SDS011;11650;48.106;-1.696;2022-08-19T06:16:37;8.33;;;4.33;;
22967;SDS011;11650;48.106;-1.696;2022-08-19T06:19:06;7.50;;;4.23;;
22967;SDS011;11650;48.106;-1.696;2022-08-19T06:21:34;6.43;;;4.07;;
22967;SDS011;11650;48.106;-1.696;2022-08-19T06:24:02;7.37;;;3.97;;
22967;SDS011;11650;48.106;-1.696;2022-08-19T06:26:29;7.63;;;4.50;;
22967;SDS011;11650;48.106;-1.696;2022-08-19T06:28:55;6.40;;;4.37;;
22967;SDS011;11650;48.106;-1.696;2022-08-19T06:31:25;8.67;;;4.50;;
22967;SDS011;11650;48.106;-1.696;2022-08-19T06:33:56;5.07;;;3.90;;
22967;SDS011;11650;48.106;-1.696;2022-08-19T06:38:54;6.30;;;4.40;;
22967;SDS011;11650;48.106;-1.696;2022-08-19T06:41:22;6.33;;;4.33;;
22967;SDS011;11650;48.106;-1.696;2022-08-19T06:43:49;6.90;;;4.50;;
22967;SDS011;11650;48.106;-1.696;2022-08-19T06:46:15;10.17;;;4.37;;
22967;SDS011;11650;48.106;-1.696;2022-08-19T06:48:43;5.80;;;4.87;;
22967;SDS011;11650;48.106;-1.696;2022-08-19T06:51:09;7.43;;;4.47;;
22967;SDS011;11650;48.106;-1.696;2022-08-19T06:53:35;6.10;;;4.00;;
22967;SDS011;11650;48.106;-1.696;2022-08-19T06:56:00;8.13;;;4.50;;
22967;SDS011;11650;48.106;-1.696;2022-08-19T06:58:27;7.30;;;4.30;;
22967;SDS011;11650;48.106;-1.696;2022-08-19T07:00:57;6.87;;;4.50;;
22967;SDS011;11650;48.106;-1.696;2022-08-19T07:03:32;6.27;;;4.33;;
22967;SDS011;11650;48.106;-1.696;2022-08-19T07:06:03;8.47;;;4.90;;
22967;SDS011;11650;48.106;-1.696;2022-08-19T07:08:34;6.80;;;4.73;;
22967;SDS011;11650;48.106;-1.696;2022-08-19T07:11:08;8.00;;;4.87;;
22967;SDS011;11650;48.106;-1.696;2022-08-19T07:13:36;6.43;;;4.07;;
22967;SDS011;11650;48.106;-1.696;2022-08-19T07:16:13;8.37;;;4.70;;
22967;SDS011;11650;48.106;-1.696;2022-08-19T07:18:41;7.17;;;4.33;;
22967;SDS011;11650;48.106;-1.696;2022-08-19T07:21:08;7.90;;;4.67;;
22967;SDS011;11650;48.106;-1.696;2022-08-19T07:23:37;8.93;;;4.73;;
22967;SDS011;11650;48.106;-1.696;2022-08-19T07:26:07;6.63;;;4.70;;
22967;SDS011;11650;48.106;-1.696;2022-08-19T07:28:36;8.70;;;4.50;;
22967;SDS011;11650;48.106;-1.696;2022-08-19T07:31:04;8.33;;;4.63;;
22967;SDS011;11650;48.106;-1.696;2022-08-19T07:33:31;8.33;;;4.63;;
22967;SDS011;11650;48.106;-1.696;2022-08-19T07:36:00;12.30;;;4.73;;
22967;SDS011;11650;48.106;-1.696;2022-08-19T07:38:26;7.80;;;4.90;;
22967;SDS011;11650;48.106;-1.696;2022-08-19T07:40:52;9.13;;;5.07;;
22967;SDS011;11650;48.106;-1.696;2022-08-19T07:43:18;9.63;;;4.87;;
22967;SDS011;11650;48.106;-1.696;2022-08-19T07:45:45;9.80;;;4.77;;
22967;SDS011;11650;48.106;-1.696;2022-08-19T07:48:11;10.50;;;5.40;;
22967;SDS011;11650;48.106;-1.696;2022-08-19T07:50:37;10.03;;;5.20;;
22967;SDS011;11650;48.106;-1.696;2022-08-19T07:53:03;9.53;;;4.97;;
22967;SDS011;11650;48.106;-1.696;2022-08-19T07:55:29;6.80;;;4.43;;
22967;SDS011;11650;48.106;-1.696;2022-08-19T07:57:55;9.57;;;4.97;;
22967;SDS011;11650;48.106;-1.696;2022-08-19T08:00:21;12.30;;;5.17;;
22967;SDS011;11650;48.106;-1.696;2022-08-19T08:02:47;8.90;;;4.90;;
22967;SDS011;11650;48.106;-1.696;2022-08-19T08:05:12;10.17;;;5.03;;
22967;SDS011;11650;48.106;-1.696;2022-08-19T08:07:56;11.83;;;5.63;;
22967;SDS011;11650;48.106;-1.696;2022-08-19T08:10:41;8.63;;;4.27;;
22967;SDS011;11650;48.106;-1.696;2022-08-19T08:13:07;10.10;;;3.90;;
22967;SDS011;11650;48.106;-1.696;2022-08-19T08:15:32;12.50;;;4.20;;
22967;SDS011;11650;48.106;-1.696;2022-08-19T08:17:58;6.47;;;4.40;;
22967;SDS011;11650;48.106;-1.696;2022-08-19T08:20:24;9.47;;;4.50;;
22967;SDS011;11650;48.106;-1.696;2022-08-19T08:22:50;7.87;;;4.13;;
22967;SDS011;11650;48.106;-1.696;2022-08-19T08:25:34;8.80;;;3.47;;
22967;SDS011;11650;48.106;-1.696;2022-08-19T08:28:01;12.93;;;3.77;;
22967;SDS011;11650;48.106;-1.696;2022-08-19T08:30:29;5.67;;;3.40;;
22967;SDS011;11650;48.106;-1.696;2022-08-19T08:32:55;10.37;;;4.00;;
22967;SDS011;11650;48.106;-1.696;2022-08-19T08:35:22;10.67;;;3.73;;
22967;SDS011;11650;48.106;-1.696;2022-08-19T08:37:49;8.70;;;4.20;;
22967;SDS011;11650;48.106;-1.696;2022-08-19T08:40:21;7.73;;;3.90;;
22967;SDS011;11650;48.106;-1.696;2022-08-19T08:45:33;9.03;;;3.73;;
22967;SDS011;11650;48.106;-1.696;2022-08-19T08:48:07;10.37;;;4.23;;
22967;SDS011;11650;48.106;-1.696;2022-08-19T08:50:44;6.47;;;3.30;;
22967;SDS011;11650;48.106;-1.696;2022-08-19T08:53:13;12.43;;;4.20;;
22967;SDS011;11650;48.106;-1.696;2022-08-19T08:55:41;11.57;;;3.70;;
22967;SDS011;11650;48.106;-1.696;2022-08-19T08:58:09;6.33;;;3.60;;
22967;SDS011;11650;48.106;-1.696;2022-08-19T09:00:48;9.40;;;3.87;;
22967;SDS011;11650;48.106;-1.696;2022-08-19T09:03:18;7.60;;;4.00;;
22967;SDS011;11650;48.106;-1.696;2022-08-19T09:11:19;9.57;;;3.50;;
22967;SDS011;11650;48.106;-1.696;2022-08-19T09:14:06;9.70;;;3.53;;
22967;SDS011;11650;48.106;-1.696;2022-08-19T09:16:53;7.03;;;3.50;;
22967;SDS011;11650;48.106;-1.696;2022-08-19T09:19:19;8.97;;;3.57;;
22967;SDS011;11650;48.106;-1.696;2022-08-19T09:21:44;6.77;;;3.43;;
22967;SDS011;11650;48.106;-1.696;2022-08-19T09:24:10;8.13;;;3.40;;
22967;SDS011;11650;48.106;-1.696;2022-08-19T09:26:36;10.43;;;3.53;;
22967;SDS011;11650;48.106;-1.696;2022-08-19T09:29:02;9.20;;;3.10;;
22967;SDS011;11650;48.106;-1.696;2022-08-19T09:31:30;5.40;;;2.77;;
22967;SDS011;11650;48.106;-1.696;2022-08-19T09:33:57;7.80;;;3.40;;
22967;SDS011;11650;48.106;-1.696;2022-08-19T09:36:24;5.80;;;2.70;;
22967;SDS011;11650;48.106;-1.696;2022-08-19T09:38:55;5.20;;;3.07;;
22967;SDS011;11650;48.106;-1.696;2022-08-19T09:41:22;6.90;;;3.00;;
22967;SDS011;11650;48.106;-1.696;2022-08-19T09:43:49;10.37;;;3.43;;
22967;SDS011;11650;48.106;-1.696;2022-08-19T09:46:17;7.43;;;3.10;;
22967;SDS011;11650;48.106;-1.696;2022-08-19T09:48:46;6.23;;;2.63;;
22967;SDS011;11650;48.106;-1.696;2022-08-19T09:51:15;7.67;;;2.90;;
22967;SDS011;11650;48.106;-1.696;2022-08-19T09:53:44;5.23;;;2.50;;
22967;SDS011;11650;48.106;-1.696;2022-08-19T09:56:11;9.13;;;2.93;;
22967;SDS011;11650;48.106;-1.696;2022-08-19T09:58:38;3.90;;;2.27;;
22967;SDS011;11650;48.106;-1.696;2022-08-19T10:01:05;7.57;;;2.47;;
22967;SDS011;11650;48.106;-1.696;2022-08-19T10:03:32;5.10;;;2.50;;
22967;SDS011;11650;48.106;-1.696;2022-08-19T10:06:00;5.67;;;2.33;;
22967;SDS011;11650;48.106;-1.696;2022-08-19T10:08:29;7.87;;;2.50;;
22967;SDS011;11650;48.106;-1.696;2022-08-19T10:10:58;11.10;;;3.03;;
22967;SDS011;11650;48.106;-1.696;2022-08-19T10:13:25;5.67;;;2.30;;
22967;SDS011;11650;48.106;-1.696;2022-08-19T10:15:52;5.47;;;2.40;;
22967;SDS011;11650;48.106;-1.696;2022-08-19T10:18:20;4.40;;;2.07;;
22967;SDS011;11650;48.106;-1.696;2022-08-19T10:20:48;6.67;;;2.37;;
22967;SDS011;11650;48.106;-1.696;2022-08-19T10:23:15;3.77;;;2.03;;
22967;SDS011;11650;48.106;-1.696;2022-08-19T10:25:42;5.27;;;2.17;;
22967;SDS011;11650;48.106;-1.696;2022-08-19T10:28:08;4.17;;;1.90;;
22967;SDS011;11650;48.106;-1.696;2022-08-19T10:30:36;5.80;;;2.13;;
22967;SDS011;11650;48.106;-1.696;2022-08-19T10:33:03;4.67;;;2.20;;
22967;SDS011;11650;48.106;-1.696;2022-08-19T10:35:29;5.53;;;2.07;;
22967;SDS011;11650;48.106;-1.696;2022-08-19T10:37:55;5.47;;;2.37;;
22967;SDS011;11650;48.106;-1.696;2022-08-19T10:40:26;5.37;;;2.27;;
22967;SDS011;11650;48.106;-1.696;2022-08-19T10:42:53;5.63;;;2.00;;
22967;SDS011;11650;48.106;-1.696;2022-08-19T10:45:20;3.93;;;1.93;;
22967;SDS011;11650;48.106;-1.696;2022-08-19T10:47:50;5.47;;;2.17;;
22967;SDS011;11650;48.106;-1.696;2022-08-19T10:50:16;5.17;;;2.30;;
22967;SDS011;11650;48.106;-1.696;2022-08-19T10:53:06;5.37;;;2.20;;
22967;SDS011;11650;48.106;-1.696;2022-08-19T10:55:35;3.40;;;1.80;;
22967;SDS011;11650;48.106;-1.696;2022-08-19T10:58:20;4.87;;;1.90;;
22967;SDS011;11650;48.106;-1.696;2022-08-19T11:00:55;5.40;;;2.00;;
22967;SDS011;11650;48.106;-1.696;2022-08-19T11:03:23;7.30;;;2.37;;
22967;SDS011;11650;48.106;-1.696;2022-08-19T11:08:44;6.03;;;1.60;;
22967;SDS011;11650;48.106;-1.696;2022-08-19T11:11:10;5.33;;;1.87;;
22967;SDS011;11650;48.106;-1.696;2022-08-19T11:13:38;3.40;;;1.80;;
22967;SDS011;11650;48.106;-1.696;2022-08-19T11:16:10;3.10;;;1.70;;
22967;SDS011;11650;48.106;-1.696;2022-08-19T11:18:39;6.30;;;2.10;;
22967;SDS011;11650;48.106;-1.696;2022-08-19T11:21:08;5.57;;;1.90;;
22967;SDS011;11650;48.106;-1.696;2022-08-19T11:23:36;5.47;;;1.60;;
22967;SDS011;11650;48.106;-1.696;2022-08-19T11:26:02;4.40;;;1.60;;
22967;SDS011;11650;48.106;-1.696;2022-08-19T11:28:28;5.33;;;1.80;;
22967;SDS011;11650;48.106;-1.696;2022-08-19T11:30:53;3.87;;;1.90;;
22967;SDS011;11650;48.106;-1.696;2022-08-19T11:33:19;5.50;;;1.40;;
22967;SDS011;11650;48.106;-1.696;2022-08-19T11:35:45;2.63;;;1.23;;
22967;SDS011;11650;48.106;-1.696;2022-08-19T11:38:10;2.70;;;1.20;;
22967;SDS011;11650;48.106;-1.696;2022-08-19T11:40:36;2.17;;;1.20;;
22967;SDS011;11650;48.106;-1.696;2022-08-19T11:43:02;2.67;;;1.30;;
22967;SDS011;11650;48.106;-1.696;2022-08-19T11:45:29;3.33;;;1.30;;
22967;SDS011;11650;48.106;-1.696;2022-08-19T11:47:55;2.97;;;1.10;;
22967;SDS011;11650;48.106;-1.696;2022-08-19T11:50:22;4.37;;;1.50;;
22967;SDS011;11650;48.106;-1.696;2022-08-19T11:52:48;2.63;;;1.20;;
22967;SDS011;11650;48.106;-1.696;2022-08-19T11:55:14;5.27;;;1.40;;
22967;SDS011;11650;48.106;-1.696;2022-08-19T11:57:41;1.77;;;0.90;;
22967;SDS011;11650;48.106;-1.696;2022-08-19T12:00:08;2.40;;;1.23;;
22967;SDS011;11650;48.106;-1.696;2022-08-19T12:02:36;4.20;;;1.07;;
22967;SDS011;11650;48.106;-1.696;2022-08-19T12:05:02;3.40;;;1.30;;
22967;SDS011;11650;48.106;-1.696;2022-08-19T12:07:28;2.73;;;1.27;;
22967;SDS011;11650;48.106;-1.696;2022-08-19T12:09:58;4.60;;;1.47;;
22967;SDS011;11650;48.106;-1.696;2022-08-19T12:12:24;4.03;;;1.60;;
22967;SDS011;11650;48.106;-1.696;2022-08-19T12:14:49;3.30;;;1.50;;
22967;SDS011;11650;48.106;-1.696;2022-08-19T12:17:21;5.00;;;1.70;;
22967;SDS011;11650;48.106;-1.696;2022-08-19T12:19:48;4.20;;;1.50;;
22967;SDS011;11650;48.106;-1.696;2022-08-19T12:22:13;5.23;;;1.70;;
22967;SDS011;11650;48.106;-1.696;2022-08-19T12:24:39;4.17;;;2.10;;
22967;SDS011;11650;48.106;-1.696;2022-08-19T12:27:05;4.00;;;1.80;;
22967;SDS011;11650;48.106;-1.696;2022-08-19T12:29:30;2.97;;;1.93;;
22967;SDS011;11650;48.106;-1.696;2022-08-19T12:31:57;3.53;;;1.53;;
22967;SDS011;11650;48.106;-1.696;2022-08-19T12:34:26;4.30;;;1.50;;
22967;SDS011;11650;48.106;-1.696;2022-08-19T12:36:55;2.57;;;1.40;;
22967;SDS011;11650;48.106;-1.696;2022-08-19T12:39:26;5.07;;;1.57;;
22967;SDS011;11650;48.106;-1.696;2022-08-19T12:41:51;3.43;;;1.17;;
22967;SDS011;11650;48.106;-1.696;2022-08-19T12:44:18;1.20;;;1.07;;
22967;SDS011;11650;48.106;-1.696;2022-08-19T12:46:44;3.43;;;1.40;;
22967;SDS011;11650;48.106;-1.696;2022-08-19T12:49:10;3.83;;;1.40;;
22967;SDS011;11650;48.106;-1.696;2022-08-19T12:51:35;3.07;;;1.60;;
22967;SDS011;11650;48.106;-1.696;2022-08-19T12:54:01;5.23;;;1.40;;
22967;SDS011;11650;48.106;-1.696;2022-08-19T12:56:27;2.80;;;1.40;;
22967;SDS011;11650;48.106;-1.696;2022-08-19T12:58:53;5.93;;;1.97;;
22967;SDS011;11650;48.106;-1.696;2022-08-19T13:01:19;2.57;;;1.40;;
22967;SDS011;11650;48.106;-1.696;2022-08-19T13:03:45;3.50;;;1.33;;
22967;SDS011;11650;48.106;-1.696;2022-08-19T13:06:12;5.50;;;1.43;;
22967;SDS011;11650;48.106;-1.696;2022-08-19T13:08:38;4.00;;;1.40;;
22967;SDS011;11650;48.106;-1.696;2022-08-19T13:11:08;3.53;;;1.40;;
22967;SDS011;11650;48.106;-1.696;2022-08-19T13:13:36;2.53;;;1.10;;
22967;SDS011;11650;48.106;-1.696;2022-08-19T13:16:05;5.17;;;1.30;;
22967;SDS011;11650;48.106;-1.696;2022-08-19T13:18:31;3.23;;;1.10;;
22967;SDS011;11650;48.106;-1.696;2022-08-19T13:21:01;2.93;;;1.10;;
22967;SDS011;11650;48.106;-1.696;2022-08-19T13:23:29;3.80;;;1.27;;
22967;SDS011;11650;48.106;-1.696;2022-08-19T13:25:59;3.17;;;1.30;;
22967;SDS011;11650;48.106;-1.696;2022-08-19T13:28:27;1.67;;;0.90;;
22967;SDS011;11650;48.106;-1.696;2022-08-19T13:31:14;2.53;;;1.10;;
22967;SDS011;11650;48.106;-1.696;2022-08-19T13:33:59;1.60;;;1.00;;
22967;SDS011;11650;48.106;-1.696;2022-08-19T13:36:25;2.17;;;1.00;;
22967;SDS011;11650;48.106;-1.696;2022-08-19T13:38:50;3.03;;;1.00;;
22967;SDS011;11650;48.106;-1.696;2022-08-19T13:41:16;3.37;;;1.20;;
22967;SDS011;11650;48.106;-1.696;2022-08-19T13:43:43;2.93;;;1.00;;
22967;SDS011;11650;48.106;-1.696;2022-08-19T13:46:09;2.77;;;1.10;;
22967;SDS011;11650;48.106;-1.696;2022-08-19T13:48:38;5.27;;;1.10;;
22967;SDS011;11650;48.106;-1.696;2022-08-19T13:51:04;4.00;;;1.47;;
22967;SDS011;11650;48.106;-1.696;2022-08-19T13:53:30;3.10;;;1.20;;
22967;SDS011;11650;48.106;-1.696;2022-08-19T13:55:56;2.40;;;0.63;;
22967;SDS011;11650;48.106;-1.696;2022-08-19T13:58:22;0.80;;;0.60;;
22967;SDS011;11650;48.106;-1.696;2022-08-19T14:00:47;3.50;;;0.80;;
22967;SDS011;11650;48.106;-1.696;2022-08-19T14:03:14;2.10;;;0.60;;
22967;SDS011;11650;48.106;-1.696;2022-08-19T14:05:40;2.10;;;0.63;;
22967;SDS011;11650;48.106;-1.696;2022-08-19T14:08:06;2.53;;;0.57;;
22967;SDS011;11650;48.106;-1.696;2022-08-19T14:10:32;1.53;;;0.50;;
22967;SDS011;11650;48.106;-1.696;2022-08-19T14:12:59;1.77;;;0.37;;
22967;SDS011;11650;48.106;-1.696;2022-08-19T14:15:26;0.87;;;0.50;;
22967;SDS011;11650;48.106;-1.696;2022-08-19T14:17:52;0.97;;;0.50;;
22967;SDS011;11650;48.106;-1.696;2022-08-19T14:20:19;2.27;;;0.50;;
22967;SDS011;11650;48.106;-1.696;2022-08-19T14:22:45;1.47;;;0.60;;
22967;SDS011;11650;48.106;-1.696;2022-08-19T14:25:13;1.63;;;0.40;;
22967;SDS011;11650;48.106;-1.696;2022-08-19T14:27:41;3.90;;;0.50;;
22967;SDS011;11650;48.106;-1.696;2022-08-19T14:30:09;2.20;;;0.50;;
22967;SDS011;11650;48.106;-1.696;2022-08-19T14:32:36;1.90;;;0.40;;
22967;SDS011;11650;48.106;-1.696;2022-08-19T14:35:03;3.13;;;0.60;;
22967;SDS011;11650;48.106;-1.696;2022-08-19T14:37:29;2.17;;;0.50;;
22967;SDS011;11650;48.106;-1.696;2022-08-19T14:39:55;1.57;;;0.50;;
22967;SDS011;11650;48.106;-1.696;2022-08-19T14:42:21;2.63;;;0.70;;
22967;SDS011;11650;48.106;-1.696;2022-08-19T14:44:46;1.63;;;0.57;;
22967;SDS011;11650;48.106;-1.696;2022-08-19T14:47:12;1.43;;;0.43;;
22967;SDS011;11650;48.106;-1.696;2022-08-19T14:49:37;0.60;;;0.40;;
22967;SDS011;11650;48.106;-1.696;2022-08-19T14:52:04;1.63;;;0.60;;
22967;SDS011;11650;48.106;-1.696;2022-08-19T14:54:30;1.67;;;0.50;;